createdAt,value
2018-06-10T00:45:44.596Z,23.50
2018-06-10T00:48:13.764Z,23.50
2018-06-10T00:50:43.033Z,23.50
2018-06-10T00:53:12.230Z,23.40
2018-06-10T00:55:41.424Z,23.40
2018-06-10T00:58:10.616Z,23.40
2018-06-10T01:00:39.857Z,23.40
2018-06-10T01:03:09.064Z,23.40
2018-06-10T01:05:38.252Z,23.40
2018-06-10T01:08:07.453Z,23.30
2018-06-10T01:10:36.925Z,23.30
2018-06-10T01:15:34.877Z,23.30
2018-06-10T01:18:04.140Z,23.30
2018-06-10T01:20:33.406Z,23.30
2018-06-10T01:23:02.600Z,23.30
2018-06-10T01:25:31.797Z,23.30
2018-06-10T01:28:00.985Z,23.30
2018-06-10T01:30:30.206Z,23.30
2018-06-10T01:32:59.393Z,23.30
2018-06-10T01:35:28.601Z,23.30
2018-06-10T01:37:57.806Z,23.20
2018-06-10T01:40:27.095Z,23.20
2018-06-10T01:42:56.705Z,23.20
2018-06-10T01:45:25.893Z,23.20
2018-06-10T01:47:55.157Z,23.20
2018-06-10T01:50:24.434Z,23.20
2018-06-10T01:52:53.656Z,23.20
2018-06-10T01:55:22.827Z,23.20
2018-06-10T01:57:52.026Z,23.20
2018-06-10T02:00:21.292Z,23.20
2018-06-10T02:02:50.484Z,23.20
2018-06-10T02:05:19.680Z,23.20
2018-06-10T02:07:48.872Z,23.20
2018-06-10T02:10:18.077Z,23.20
2018-06-10T02:12:47.275Z,23.10
2018-06-10T02:15:16.718Z,23.10
2018-06-10T02:17:45.917Z,23.10
2018-06-10T02:20:15.180Z,23.20
2018-06-10T02:25:13.088Z,23.10
2018-06-10T02:27:42.404Z,23.10
2018-06-10T02:30:11.701Z,23.10
2018-06-10T02:32:40.896Z,23.10
2018-06-10T02:35:10.098Z,23.10
2018-06-10T02:37:39.324Z,23.10
2018-06-10T02:40:08.564Z,23.10
2018-06-10T02:42:41.718Z,23.10
2018-06-10T02:45:10.920Z,23.10
2018-06-10T02:47:40.600Z,23.00
2018-06-10T02:50:09.857Z,23.00
2018-06-10T02:52:39.128Z,23.00
2018-06-10T02:55:08.349Z,23.00
2018-06-10T02:57:37.545Z,23.00
2018-06-10T03:00:07.001Z,23.00
2018-06-10T03:02:36.189Z,23.00
2018-06-10T03:05:05.426Z,23.00
2018-06-10T03:07:34.621Z,22.90
2018-06-10T03:10:03.888Z,23.00
2018-06-10T03:12:33.214Z,22.90
2018-06-10T03:15:02.426Z,22.90
2018-06-10T03:17:31.621Z,22.90
2018-06-10T03:20:00.817Z,22.90
2018-06-10T03:22:30.019Z,22.90
2018-06-10T03:24:59.279Z,22.90
2018-06-10T03:27:28.512Z,22.90
2018-06-10T03:29:57.813Z,22.90
2018-06-10T03:32:27.007Z,22.90
2018-06-10T03:34:56.195Z,22.90
2018-06-10T03:37:25.378Z,22.90
2018-06-10T03:39:54.601Z,22.90
2018-06-10T03:42:23.830Z,22.80
2018-06-10T03:44:53.020Z,22.80
2018-06-10T03:47:22.218Z,22.80
2018-06-10T03:49:51.438Z,22.80
2018-06-10T03:52:20.732Z,22.80
2018-06-10T03:54:49.911Z,22.80
2018-06-10T03:57:19.291Z,22.80
2018-06-10T03:59:48.516Z,22.80
2018-06-10T04:02:17.764Z,22.80
2018-06-10T04:04:46.979Z,22.80
2018-06-10T04:07:16.155Z,22.80
2018-06-10T04:09:45.357Z,22.70
2018-06-10T04:12:14.661Z,22.80
2018-06-10T04:14:44.021Z,22.80
2018-06-10T04:17:13.281Z,22.80
2018-06-10T04:19:42.485Z,22.80
2018-06-10T04:22:11.741Z,22.80
2018-06-10T04:24:40.937Z,22.80
2018-06-10T04:27:10.116Z,22.70
2018-06-10T04:29:39.373Z,22.70
2018-06-10T04:32:08.651Z,22.80
2018-06-10T04:34:37.870Z,22.70
2018-06-10T04:37:07.045Z,22.70
2018-06-10T04:39:36.245Z,22.80
2018-06-10T04:42:05.531Z,22.80
2018-06-10T04:44:34.700Z,22.70
2018-06-10T04:47:03.895Z,22.80
2018-06-10T04:49:33.085Z,22.70
2018-06-10T04:52:02.293Z,22.70
2018-06-10T04:54:31.494Z,22.70
2018-06-10T04:57:01.046Z,22.70
2018-06-10T04:59:30.260Z,22.70
2018-06-10T05:01:59.606Z,22.70
2018-06-10T05:04:28.861Z,22.70
2018-06-10T05:06:58.060Z,22.70
2018-06-10T05:09:27.253Z,22.70
2018-06-10T05:11:56.536Z,22.70
2018-06-10T05:14:25.758Z,22.70
2018-06-10T05:16:54.993Z,22.70
2018-06-10T05:19:24.202Z,22.70
2018-06-10T05:21:53.497Z,22.70
2018-06-10T05:24:22.733Z,22.70
2018-06-10T05:26:51.955Z,22.70
2018-06-10T05:29:21.179Z,22.70
2018-06-10T05:31:50.395Z,22.70
2018-06-10T05:34:19.657Z,22.70
2018-06-10T05:36:48.880Z,22.70
2018-06-10T05:39:18.084Z,22.70
2018-06-10T05:41:47.423Z,22.70
2018-06-10T05:44:16.617Z,22.70
2018-06-10T05:46:45.802Z,22.70
2018-06-10T05:49:14.988Z,22.70
2018-06-10T05:51:44.318Z,22.70
2018-06-10T05:54:13.517Z,22.70
2018-06-10T05:56:42.741Z,22.70
2018-06-10T05:59:11.930Z,22.70
2018-06-10T06:01:41.488Z,22.70
2018-06-10T06:04:10.765Z,22.70
2018-06-10T06:06:40.044Z,22.70
2018-06-10T06:09:09.282Z,22.70
2018-06-10T06:11:38.621Z,22.70
2018-06-10T06:14:07.868Z,22.70
2018-06-10T06:16:37.088Z,22.60
2018-06-10T06:19:06.399Z,22.40
2018-06-10T06:21:35.846Z,22.30
2018-06-10T06:24:05.041Z,22.20
2018-06-10T06:26:34.252Z,22.10
2018-06-10T06:29:03.548Z,22.10
2018-06-10T06:31:32.812Z,22.00
2018-06-10T06:34:02.330Z,22.10
2018-06-10T06:36:31.655Z,22.00
2018-06-10T06:39:00.868Z,21.90
2018-06-10T06:41:30.154Z,21.80
2018-06-10T06:43:59.379Z,21.90
2018-06-10T06:46:28.624Z,21.90
2018-06-10T06:48:57.880Z,21.80
2018-06-10T06:51:27.301Z,21.90
2018-06-10T06:53:56.555Z,21.90
2018-06-10T06:56:25.806Z,21.90
2018-06-10T06:58:55.046Z,21.90
2018-06-10T07:01:24.299Z,21.80
2018-06-10T07:03:53.589Z,21.80
2018-06-10T07:06:22.843Z,21.70
2018-06-10T07:08:52.090Z,21.70
2018-06-10T07:11:21.466Z,21.70
2018-06-10T07:13:50.754Z,21.70
2018-06-10T07:16:19.971Z,21.70
2018-06-10T07:18:49.175Z,21.70
2018-06-10T07:21:18.543Z,21.70
2018-06-10T07:23:47.852Z,21.70
2018-06-10T07:26:17.047Z,21.70
2018-06-10T07:28:46.416Z,21.70
2018-06-10T07:31:15.692Z,21.70
2018-06-10T07:33:44.979Z,21.70
2018-06-10T07:36:14.218Z,21.70
2018-06-10T07:38:43.449Z,21.70
2018-06-10T07:41:12.685Z,21.60
2018-06-10T07:43:42.096Z,21.60
2018-06-10T07:48:40.147Z,21.60
2018-06-10T07:51:09.443Z,21.60
2018-06-10T07:53:38.732Z,21.60
2018-06-10T07:56:07.982Z,21.50
2018-06-10T07:58:37.277Z,21.50
2018-06-10T08:01:06.728Z,21.50
2018-06-10T08:03:36.055Z,21.50
2018-06-10T08:06:05.410Z,21.50
2018-06-10T08:08:34.697Z,21.50
2018-06-10T08:11:04.085Z,21.60
2018-06-10T08:13:33.434Z,21.60
2018-06-10T08:16:02.717Z,21.60
2018-06-10T08:18:31.985Z,21.60
2018-06-10T08:21:01.325Z,21.70
2018-06-10T08:23:30.579Z,21.70
2018-06-10T08:25:59.921Z,21.70
2018-06-10T08:28:29.192Z,21.70
2018-06-10T08:30:58.578Z,21.60
2018-06-10T08:33:27.823Z,21.60
2018-06-10T08:35:57.166Z,21.60
2018-06-10T08:38:26.486Z,21.60
2018-06-10T08:40:56.896Z,21.60
2018-06-10T08:43:26.662Z,21.70
2018-06-10T08:45:55.908Z,21.80
2018-06-10T08:48:25.278Z,21.80
2018-06-10T08:50:54.600Z,21.80
2018-06-10T08:53:23.821Z,21.90
2018-06-10T08:55:53.296Z,21.90
2018-06-10T08:58:22.548Z,22.00
2018-06-10T09:03:20.740Z,22.10
2018-06-10T09:05:50.043Z,22.20
2018-06-10T09:08:19.248Z,22.20
2018-06-10T09:10:49.627Z,22.20
2018-06-10T09:13:20.657Z,22.30
2018-06-10T09:15:50.225Z,22.30
2018-06-10T09:18:19.484Z,22.30
2018-06-10T09:20:48.908Z,22.40
2018-06-10T09:23:18.198Z,22.40
2018-06-10T09:25:47.514Z,22.40
2018-06-10T09:28:17.422Z,22.40
2018-06-10T09:30:46.820Z,22.50
2018-06-10T09:33:16.152Z,22.50
2018-06-10T09:35:45.808Z,22.50
2018-06-10T09:38:15.025Z,22.50
2018-06-10T09:40:44.323Z,22.50
2018-06-10T09:43:13.749Z,22.60
2018-06-10T09:45:42.996Z,22.60
2018-06-10T09:48:12.326Z,22.60
2018-06-10T09:50:41.699Z,22.60
2018-06-10T09:53:11.019Z,22.60
2018-06-10T09:55:40.432Z,22.60
2018-06-10T09:58:09.829Z,22.60
2018-06-10T10:00:39.750Z,22.70
2018-06-10T10:03:09.012Z,22.70
2018-06-10T10:05:38.289Z,22.80
2018-06-10T10:08:07.845Z,22.90
2018-06-10T10:10:37.227Z,23.00
2018-06-10T10:13:06.513Z,23.00
2018-06-10T10:15:35.787Z,23.00
2018-06-10T10:18:05.126Z,23.00
2018-06-10T10:20:34.799Z,23.00
2018-06-10T10:23:04.084Z,23.00
2018-06-10T10:25:33.834Z,23.00
2018-06-10T10:28:03.357Z,23.00
2018-06-10T10:30:32.569Z,23.00
2018-06-10T10:33:01.935Z,23.00
2018-06-10T10:35:31.300Z,23.00
2018-06-10T10:38:00.573Z,23.10
2018-06-10T10:40:29.852Z,23.10
2018-06-10T10:42:59.091Z,23.10
2018-06-10T10:45:28.311Z,23.10
2018-06-10T10:47:57.637Z,23.10
2018-06-10T10:50:27.053Z,23.10
2018-06-10T10:52:56.301Z,23.10
2018-06-10T10:55:25.579Z,23.10
2018-06-10T10:57:54.847Z,23.10
2018-06-10T11:00:24.149Z,23.10
2018-06-10T11:02:53.472Z,23.10
2018-06-10T11:05:22.753Z,23.10
2018-06-10T11:07:51.993Z,23.10
2018-06-10T11:12:50.008Z,23.10
2018-06-10T11:15:19.337Z,23.10
2018-06-10T11:17:48.608Z,23.10
2018-06-10T11:20:17.899Z,23.10
2018-06-10T11:22:47.166Z,23.10
2018-06-10T11:25:16.469Z,23.10
2018-06-10T11:27:45.771Z,23.10
2018-06-10T11:30:15.114Z,23.20
2018-06-10T11:32:44.342Z,23.20
2018-06-10T11:35:13.576Z,23.20
2018-06-10T11:37:42.894Z,23.20
2018-06-10T11:40:12.137Z,23.20
2018-06-10T11:42:41.363Z,23.20
2018-06-10T11:45:10.634Z,23.30
2018-06-10T11:47:39.897Z,23.30
2018-06-10T11:50:09.165Z,23.30
2018-06-10T11:55:07.110Z,23.30
2018-06-10T11:57:36.390Z,23.30
2018-06-10T12:00:06.029Z,23.30
2018-06-10T12:02:35.277Z,23.30
2018-06-10T12:05:04.488Z,23.30
2018-06-10T12:07:33.776Z,23.30
2018-06-10T12:10:03.017Z,23.30
2018-06-10T12:12:32.593Z,23.30
2018-06-10T12:15:01.968Z,23.30
2018-06-10T12:17:31.281Z,23.30
2018-06-10T12:20:00.701Z,23.30
2018-06-10T12:22:30.028Z,23.40
2018-06-10T12:24:59.232Z,23.40
2018-06-10T12:27:28.461Z,23.40
2018-06-10T12:29:58.241Z,23.40
2018-06-10T12:32:27.574Z,23.40
2018-06-10T12:34:56.901Z,23.30
2018-06-10T12:37:26.136Z,23.40
2018-06-10T12:39:55.361Z,23.40
2018-06-10T12:42:24.634Z,23.40
2018-06-10T12:44:53.932Z,23.30
2018-06-10T12:47:23.295Z,23.40
2018-06-10T12:49:52.637Z,23.40
2018-06-10T12:52:22.074Z,23.40
2018-06-10T12:54:51.345Z,23.40
2018-06-10T12:57:20.679Z,23.40
2018-06-10T12:59:49.952Z,23.40
2018-06-10T13:02:19.554Z,23.50
2018-06-10T13:04:49.345Z,23.50
2018-06-10T13:07:18.664Z,23.60
2018-06-10T13:09:47.972Z,23.60
2018-06-10T13:12:17.287Z,23.60
2018-06-10T13:14:46.572Z,23.60
2018-06-10T13:17:15.883Z,23.60
2018-06-10T13:19:45.213Z,23.50
2018-06-10T13:22:14.629Z,23.50
2018-06-10T13:24:43.904Z,23.50
2018-06-10T13:27:13.205Z,23.50
2018-06-10T13:29:42.605Z,23.50
2018-06-10T13:32:12.004Z,23.50
2018-06-10T13:34:41.375Z,23.50
2018-06-10T13:37:10.817Z,23.50
2018-06-10T13:39:40.116Z,23.50
2018-06-10T13:42:09.515Z,23.50
2018-06-10T13:44:38.836Z,23.50
2018-06-10T13:47:08.136Z,23.50
2018-06-10T13:49:37.386Z,23.50
2018-06-10T13:52:06.704Z,23.50
2018-06-10T13:54:35.983Z,23.50
2018-06-10T13:57:05.255Z,23.50
2018-06-10T13:59:34.484Z,23.50
2018-06-10T14:02:03.911Z,23.50
2018-06-10T14:04:33.225Z,23.50
2018-06-10T14:07:02.873Z,23.50
2018-06-10T14:09:32.190Z,23.50
2018-06-10T14:12:01.529Z,23.50
2018-06-10T14:14:30.964Z,23.50
2018-06-10T14:17:00.271Z,23.50
2018-06-10T14:19:29.554Z,23.50
2018-06-10T14:21:59.006Z,23.50
2018-06-10T14:24:28.277Z,23.50
2018-06-10T14:26:57.580Z,23.50
2018-06-10T14:29:26.881Z,23.50
2018-06-10T14:31:56.212Z,23.50
2018-06-10T14:34:25.480Z,23.50
2018-06-10T14:36:54.716Z,23.50
2018-06-10T14:39:24.231Z,23.60
2018-06-10T14:41:53.488Z,23.50
2018-06-10T14:44:22.753Z,23.60
2018-06-10T14:46:52.060Z,23.60
2018-06-10T14:49:21.312Z,23.60
2018-06-10T14:51:50.588Z,23.60
2018-06-10T14:54:19.807Z,23.60
2018-06-10T14:56:49.113Z,23.60
2018-06-10T14:59:18.388Z,23.60
2018-06-10T15:01:47.690Z,23.60
2018-06-10T15:04:16.950Z,23.60
2018-06-10T15:06:46.180Z,23.60
2018-06-10T15:09:15.434Z,23.60
2018-06-10T15:11:44.986Z,23.60
2018-06-10T15:14:14.248Z,23.60
2018-06-10T15:16:43.516Z,23.60
2018-06-10T15:19:12.713Z,23.60
2018-06-10T15:21:42.037Z,23.60
2018-06-10T15:24:11.247Z,23.60
2018-06-10T15:26:40.506Z,23.60
2018-06-10T15:29:09.737Z,23.60
2018-06-10T15:31:39.160Z,23.60
2018-06-10T15:34:08.402Z,23.60
2018-06-10T15:36:37.641Z,23.60
2018-06-10T15:39:08.652Z,23.60
2018-06-10T15:41:37.951Z,23.60
2018-06-10T15:44:07.275Z,23.60
2018-06-10T15:46:36.600Z,23.60
2018-06-10T15:49:05.804Z,23.60
2018-06-10T15:51:35.261Z,23.60
2018-06-10T15:54:04.510Z,23.60
2018-06-10T15:56:33.753Z,23.60
2018-06-10T15:59:02.984Z,23.60
2018-06-10T16:01:32.277Z,23.60
2018-06-10T16:04:01.530Z,23.60
2018-06-10T16:06:30.721Z,23.60
2018-06-10T16:08:59.951Z,23.60
2018-06-10T16:11:29.269Z,23.60
2018-06-10T16:13:58.477Z,23.60
2018-06-10T16:16:28.225Z,23.60
2018-06-10T16:18:57.483Z,23.60
2018-06-10T16:21:26.726Z,23.60
2018-06-10T16:23:55.933Z,23.60
2018-06-10T16:26:25.156Z,23.60
2018-06-10T16:28:54.403Z,23.60
2018-06-10T16:31:23.695Z,23.60
2018-06-10T16:33:52.953Z,23.60
2018-06-10T16:36:22.226Z,23.70
2018-06-10T16:38:51.468Z,23.60
2018-06-10T16:41:20.720Z,23.70
2018-06-10T16:43:49.942Z,23.70
2018-06-10T16:46:19.217Z,23.60
2018-06-10T16:48:48.543Z,23.60
2018-06-10T16:51:18.604Z,23.60
2018-06-10T16:56:16.588Z,23.60
2018-06-10T16:58:45.846Z,23.70
2018-06-10T17:01:15.183Z,23.70
2018-06-10T17:03:44.505Z,23.70
2018-06-10T17:06:13.758Z,23.70
2018-06-10T17:08:43.150Z,23.70
2018-06-10T17:11:12.425Z,23.70
2018-06-10T17:13:41.652Z,23.70
2018-06-10T17:16:10.933Z,23.70
2018-06-10T17:18:40.184Z,23.70
2018-06-10T17:21:09.460Z,23.70
2018-06-10T17:23:38.656Z,23.70
2018-06-10T17:26:07.879Z,23.70
2018-06-10T17:28:37.088Z,23.80
2018-06-10T17:31:06.588Z,23.70
2018-06-10T17:33:35.841Z,23.80
2018-06-10T17:36:05.842Z,23.80
2018-06-10T17:38:35.072Z,23.80
2018-06-10T17:41:04.373Z,23.80
2018-06-10T17:43:33.596Z,23.80
2018-06-10T17:46:02.797Z,23.80
2018-06-10T17:48:32.027Z,23.70
2018-06-10T17:51:01.871Z,23.70
2018-06-10T17:53:31.144Z,23.70
2018-06-10T17:56:00.401Z,23.70
2018-06-10T17:58:29.653Z,23.70
2018-06-10T18:00:59.607Z,23.70
2018-06-10T18:03:28.888Z,23.70
2018-06-10T18:05:58.244Z,23.70
2018-06-10T18:11:04.361Z,23.70
2018-06-10T18:13:33.657Z,23.80
2018-06-10T18:16:02.922Z,23.80
2018-06-10T18:18:32.223Z,23.80
2018-06-10T18:21:01.845Z,23.80
2018-06-10T18:23:31.449Z,23.80
2018-06-10T18:26:00.726Z,23.80
2018-06-10T18:28:29.996Z,23.70
2018-06-10T18:30:59.441Z,23.80
2018-06-10T18:33:28.715Z,23.70
2018-06-10T18:35:58.644Z,23.70
2018-06-10T18:38:27.920Z,23.70
2018-06-10T18:40:57.351Z,23.70
2018-06-10T18:43:26.680Z,23.70
2018-06-10T18:45:55.905Z,23.80
2018-06-10T18:48:25.176Z,23.80
2018-06-10T18:50:54.482Z,23.70
2018-06-10T18:53:23.744Z,23.80
2018-06-10T18:55:52.981Z,23.80
2018-06-10T18:58:22.308Z,23.80
2018-06-10T19:00:51.557Z,23.80
2018-06-10T19:03:20.856Z,23.80
2018-06-10T19:08:18.958Z,23.80
2018-06-10T19:10:48.261Z,23.80
2018-06-10T19:13:18.033Z,23.80
2018-06-10T19:18:16.120Z,23.80
2018-06-10T19:20:45.386Z,23.70
2018-06-10T19:23:14.597Z,23.80
2018-06-10T19:25:43.938Z,23.80
2018-06-10T19:28:13.363Z,23.80
2018-06-10T19:30:42.749Z,23.80
2018-06-10T19:33:11.985Z,23.80
2018-06-10T19:35:41.197Z,23.80
2018-06-10T19:38:10.486Z,23.80
2018-06-10T19:40:39.817Z,23.80
2018-06-10T19:43:09.089Z,23.80
2018-06-10T19:45:38.349Z,23.80
2018-06-10T19:48:07.633Z,23.80
2018-06-10T19:50:36.967Z,23.80
2018-06-10T19:53:06.525Z,23.80
2018-06-10T19:55:35.733Z,23.80
2018-06-10T19:58:05.204Z,23.80
2018-06-10T20:00:34.790Z,23.80
2018-06-10T20:03:04.048Z,23.80
2018-06-10T20:05:33.241Z,23.80
2018-06-10T20:08:02.445Z,23.80
2018-06-10T20:10:31.740Z,23.80
2018-06-10T20:13:01.075Z,23.80
2018-06-10T20:15:30.333Z,23.70
2018-06-10T20:17:59.577Z,23.70
2018-06-10T20:20:28.881Z,23.70
2018-06-10T20:22:58.077Z,23.70
2018-06-10T20:25:27.301Z,23.70
2018-06-10T20:27:59.598Z,23.70
2018-06-10T20:30:29.015Z,23.70
2018-06-10T20:32:58.265Z,23.70
2018-06-10T20:35:27.461Z,23.70
2018-06-10T20:37:56.676Z,23.70
2018-06-10T20:41:28.986Z,23.70
2018-06-10T20:43:58.184Z,23.70
2018-06-10T20:46:27.380Z,23.70
2018-06-10T20:48:56.664Z,23.70
2018-06-10T20:51:25.912Z,23.60
2018-06-10T20:53:55.142Z,23.60
2018-06-10T20:56:24.328Z,23.60
2018-06-10T20:58:53.534Z,23.60
2018-06-10T21:01:23.212Z,23.60
2018-06-10T21:03:52.421Z,23.60
2018-06-10T21:06:21.641Z,23.60
2018-06-10T21:08:50.841Z,23.60
2018-06-10T21:11:20.109Z,23.60
2018-06-10T21:13:49.333Z,23.60
2018-06-10T21:16:18.543Z,23.60
2018-06-10T21:18:47.732Z,23.60
2018-06-10T21:21:17.047Z,23.60
2018-06-10T21:23:46.256Z,23.60
2018-06-10T21:26:15.456Z,23.60
2018-06-10T21:28:44.659Z,23.60
2018-06-10T21:31:13.964Z,23.60
2018-06-10T21:33:43.712Z,23.60
2018-06-10T21:36:12.914Z,23.60
2018-06-10T21:38:42.156Z,23.60
2018-06-10T21:41:12.436Z,23.60
2018-06-10T21:43:41.628Z,23.60
2018-06-10T21:46:10.824Z,23.60
2018-06-10T21:48:40.051Z,23.60
2018-06-10T21:51:09.328Z,23.50
2018-06-10T21:53:38.584Z,23.50
2018-06-10T21:56:07.785Z,23.60
2018-06-10T21:58:37.328Z,23.50
2018-06-10T22:01:06.628Z,23.50
2018-06-10T22:03:35.828Z,23.50
2018-06-10T22:06:05.401Z,23.50
2018-06-10T22:11:03.456Z,23.50
2018-06-10T22:13:32.673Z,23.50
2018-06-10T22:16:01.868Z,23.50
2018-06-10T22:18:31.074Z,23.50
2018-06-10T22:21:00.316Z,23.50
2018-06-10T22:23:29.543Z,23.50
2018-06-10T22:25:58.773Z,23.50
2018-06-10T22:28:27.977Z,23.50
2018-06-10T22:30:57.277Z,23.50
2018-06-10T22:33:26.508Z,23.50
2018-06-10T22:35:55.738Z,23.50
2018-06-10T22:38:25.420Z,23.50
2018-06-10T22:40:54.679Z,23.50
2018-06-10T22:43:23.914Z,23.50
2018-06-10T22:45:53.113Z,23.50
2018-06-10T22:48:22.336Z,23.50
2018-06-10T22:50:51.642Z,23.50
2018-06-10T22:53:37.434Z,23.50
2018-06-10T22:56:06.957Z,23.50
2018-06-10T22:58:36.162Z,23.40
2018-06-10T23:01:05.418Z,23.40
2018-06-10T23:03:34.626Z,23.50
2018-06-10T23:06:03.856Z,23.40
2018-06-10T23:08:33.380Z,23.40
2018-06-10T23:11:02.669Z,23.40
2018-06-10T23:13:31.905Z,23.40
2018-06-10T23:16:01.133Z,23.40
2018-06-10T23:18:30.329Z,23.40
2018-06-10T23:20:59.564Z,23.40
2018-06-10T23:23:28.797Z,23.40
2018-06-10T23:25:58.031Z,23.40
2018-06-10T23:28:27.252Z,23.40
2018-06-10T23:30:56.491Z,23.40
2018-06-10T23:33:25.690Z,23.40
2018-06-10T23:35:54.915Z,23.40
2018-06-10T23:38:24.143Z,23.30
2018-06-10T23:40:53.489Z,23.30
2018-06-10T23:43:22.696Z,23.30
2018-06-10T23:45:51.948Z,23.30
2018-06-10T23:48:21.214Z,23.30
2018-06-10T23:50:50.489Z,23.30
2018-06-10T23:53:19.709Z,23.30
2018-06-10T23:55:48.937Z,23.30
2018-06-10T23:58:18.140Z,23.30
